AEA66ZQ LEMD-LECO
Flight info
| Callsign | AEA66ZQ |
|---|---|
| Flight time | 0h 54m |
| Altitude | 30000 |
| Route | ZMR DCT DESAT DCT LOMDA |
| Aircraft | B38M/M-SDE1FGHILORVWXY/HB1 |
Departure
| Time | 2026-04-16 21:44 |
|---|---|
| Airport | Adolfo Suárez Madrid–Barajas Airport (LEMD) |
Arrival
| Time | 2026-04-16 22:39 |
|---|---|
| Airport | A Coruña Airport (LECO) |
| Time | Latitude | Longitude | Altitude | Speed | Heading |
|---|---|---|---|---|---|
| 2026-04-16 21:05 | 40.47272 | -3.57011 | 1990 ft | 0 kts | 262° |
| 2026-04-16 21:29 | 40.47273 | -3.57004 | 1990 ft | 3 kts | 262° |
| 2026-04-16 21:29 | 40.47275 | -3.56977 | 1990 ft | 3 kts | 264° |
| 2026-04-16 21:29 | 40.47276 | -3.56952 | 1990 ft | 3 kts | 271° |
| 2026-04-16 21:29 | 40.47275 | -3.56934 | 1990 ft | 1 kts | 290° |
| 2026-04-16 21:30 | 40.47271 | -3.56924 | 1989 ft | 1 kts | 329° |
| 2026-04-16 21:30 | 40.47263 | -3.56921 | 1989 ft | 1 kts | 359° |
| 2026-04-16 21:30 | 40.47254 | -3.56921 | 1988 ft | 1 kts | 7° |
| 2026-04-16 21:30 | 40.47249 | -3.56922 | 1988 ft | 0 kts | 8° |
| 2026-04-16 21:34 | 40.47252 | -3.56921 | 1988 ft | 2 kts | 8° |
| 2026-04-16 21:34 | 40.47283 | -3.56913 | 1990 ft | 8 kts | 21° |
| 2026-04-16 21:34 | 40.47329 | -3.56859 | 1991 ft | 2 kts | 51° |
| 2026-04-16 21:35 | 40.47361 | -3.56857 | 1991 ft | 8 kts | 343° |
| 2026-04-16 21:35 | 40.47430 | -3.56917 | 1992 ft | 16 kts | 323° |
| 2026-04-16 21:35 | 40.47532 | -3.57017 | 1995 ft | 19 kts | 322° |
| 2026-04-16 21:35 | 40.47636 | -3.57124 | 1999 ft | 19 kts | 322° |
| 2026-04-16 21:36 | 40.47738 | -3.57227 | 2002 ft | 18 kts | 322° |
| 2026-04-16 21:36 | 40.47838 | -3.57328 | 2006 ft | 18 kts | 322° |
| 2026-04-16 21:36 | 40.47939 | -3.57431 | 2005 ft | 20 kts | 322° |
| 2026-04-16 21:36 | 40.48057 | -3.57552 | 2003 ft | 23 kts | 322° |
| 2026-04-16 21:37 | 40.48192 | -3.57691 | 1999 ft | 26 kts | 323° |
| 2026-04-16 21:37 | 40.48328 | -3.57824 | 1994 ft | 24 kts | 323° |
| 2026-04-16 21:37 | 40.48467 | -3.57948 | 1997 ft | 21 kts | 328° |
| 2026-04-16 21:37 | 40.48578 | -3.58035 | 2004 ft | 18 kts | 331° |
| 2026-04-16 21:38 | 40.48703 | -3.58050 | 2005 ft | 19 kts | 360° |
| 2026-04-16 21:38 | 40.48842 | -3.58052 | 2005 ft | 21 kts | 358° |
| 2026-04-16 21:38 | 40.48992 | -3.58052 | 2005 ft | 22 kts | 0° |
| 2026-04-16 21:38 | 40.49154 | -3.58054 | 2005 ft | 24 kts | 358° |
| 2026-04-16 21:39 | 40.49256 | -3.58050 | 2005 ft | 5 kts | 34° |
| 2026-04-16 21:39 | 40.49256 | -3.58012 | 2004 ft | 6 kts | 112° |
| 2026-04-16 21:39 | 40.49242 | -3.57933 | 2001 ft | 12 kts | 91° |
| 2026-04-16 21:39 | 40.49240 | -3.57799 | 1996 ft | 18 kts | 91° |
| 2026-04-16 21:40 | 40.49246 | -3.57653 | 1990 ft | 1 kts | 83° |
| 2026-04-16 21:41 | 40.49246 | -3.57647 | 1990 ft | 3 kts | 83° |
| 2026-04-16 21:41 | 40.49254 | -3.57602 | 1989 ft | 7 kts | 71° |
| 2026-04-16 21:41 | 40.49287 | -3.57529 | 1989 ft | 11 kts | 49° |
| 2026-04-16 21:42 | 40.49365 | -3.57463 | 1987 ft | 15 kts | 17° |
| 2026-04-16 21:42 | 40.49459 | -3.57452 | 1986 ft | 0 kts | 358° |
| 2026-04-16 21:43 | 40.49503 | -3.57453 | 1988 ft | 14 kts | 0° |
| 2026-04-16 21:43 | 40.49769 | -3.57456 | 1989 ft | 71 kts | 359° |
| 2026-04-16 21:44 | 40.50468 | -3.57461 | 1995 ft | 128 kts | 0° |
| 2026-04-16 21:44 | 40.51513 | -3.57476 | 2049 ft | 167 kts | 359° |
| 2026-04-16 21:44 | 40.52711 | -3.57404 | 2466 ft | 179 kts | 3° |
| 2026-04-16 21:44 | 40.53995 | -3.57344 | 3057 ft | 182 kts | 358° |
| 2026-04-16 21:45 | 40.55284 | -3.57444 | 3646 ft | 191 kts | 348° |
| 2026-04-16 21:45 | 40.56570 | -3.58047 | 4077 ft | 209 kts | 327° |
| 2026-04-16 21:45 | 40.57635 | -3.59417 | 4712 ft | 217 kts | 299° |
| 2026-04-16 21:45 | 40.58164 | -3.61287 | 5492 ft | 223 kts | 290° |
| 2026-04-16 21:46 | 40.58996 | -3.63025 | 6286 ft | 227 kts | 313° |
| 2026-04-16 21:46 | 40.60255 | -3.64291 | 7087 ft | 231 kts | 332° |
| 2026-04-16 21:46 | 40.61732 | -3.65174 | 7855 ft | 235 kts | 327° |
| 2026-04-16 21:46 | 40.62986 | -3.66551 | 8643 ft | 236 kts | 317° |
| 2026-04-16 21:47 | 40.64185 | -3.68091 | 9275 ft | 248 kts | 305° |
| 2026-04-16 21:47 | 40.65128 | -3.70091 | 9750 ft | 265 kts | 300° |
| 2026-04-16 21:47 | 40.66086 | -3.72185 | 10490 ft | 269 kts | 300° |
| 2026-04-16 21:47 | 40.67087 | -3.74354 | 11019 ft | 286 kts | 300° |
| 2026-04-16 21:48 | 40.68161 | -3.76667 | 11407 ft | 306 kts | 300° |
| 2026-04-16 21:48 | 40.69304 | -3.79122 | 11942 ft | 320 kts | 300° |
| 2026-04-16 21:48 | 40.70084 | -3.80797 | 12381 ft | 326 kts | 300° |
| 2026-04-16 21:48 | 40.71660 | -3.84177 | 13584 ft | 328 kts | 300° |
| 2026-04-16 21:49 | 40.72862 | -3.86760 | 14387 ft | 333 kts | 300° |
| 2026-04-16 21:49 | 40.74078 | -3.89373 | 15199 ft | 336 kts | 300° |
| 2026-04-16 21:49 | 40.74907 | -3.91156 | 15750 ft | 338 kts | 300° |
| 2026-04-16 21:49 | 40.76143 | -3.93815 | 16524 ft | 341 kts | 300° |
| 2026-04-16 21:50 | 40.77388 | -3.96497 | 17279 ft | 345 kts | 300° |
| 2026-04-16 21:50 | 40.78651 | -3.99219 | 18036 ft | 349 kts | 300° |
| 2026-04-16 21:50 | 40.79922 | -4.01961 | 18758 ft | 352 kts | 300° |
| 2026-04-16 21:50 | 40.81189 | -4.04698 | 19391 ft | 356 kts | 300° |
| 2026-04-16 21:51 | 40.82489 | -4.07506 | 20022 ft | 359 kts | 300° |
| 2026-04-16 21:51 | 40.83796 | -4.10334 | 20650 ft | 362 kts | 300° |
| 2026-04-16 21:51 | 40.85116 | -4.13192 | 21277 ft | 366 kts | 300° |
| 2026-04-16 21:51 | 40.86448 | -4.16079 | 21894 ft | 369 kts | 300° |
| 2026-04-16 21:52 | 40.87789 | -4.18989 | 22503 ft | 373 kts | 300° |
| 2026-04-16 21:52 | 40.89147 | -4.21936 | 23102 ft | 376 kts | 300° |
| 2026-04-16 21:52 | 40.90496 | -4.24871 | 23690 ft | 379 kts | 300° |
| 2026-04-16 21:52 | 40.91873 | -4.27866 | 24075 ft | 385 kts | 300° |
| 2026-04-16 21:53 | 40.93264 | -4.30896 | 24168 ft | 384 kts | 300° |
| 2026-04-16 21:53 | 40.94651 | -4.33918 | 24207 ft | 383 kts | 300° |
| 2026-04-16 21:53 | 40.96032 | -4.36933 | 24216 ft | 384 kts | 300° |
| 2026-04-16 21:53 | 40.97419 | -4.39963 | 24623 ft | 385 kts | 300° |
| 2026-04-16 21:54 | 40.98812 | -4.43007 | 25135 ft | 387 kts | 300° |
| 2026-04-16 21:54 | 41.00211 | -4.46070 | 25593 ft | 390 kts | 300° |
| 2026-04-16 21:54 | 41.01620 | -4.49158 | 26068 ft | 393 kts | 300° |
| 2026-04-16 21:54 | 41.03019 | -4.52224 | 26519 ft | 396 kts | 300° |
| 2026-04-16 21:55 | 41.04445 | -4.55356 | 26969 ft | 398 kts | 299° |
| 2026-04-16 21:55 | 41.05880 | -4.58509 | 27415 ft | 401 kts | 299° |
| 2026-04-16 21:55 | 41.07324 | -4.61687 | 27854 ft | 404 kts | 299° |
| 2026-04-16 21:55 | 41.08775 | -4.64881 | 28283 ft | 406 kts | 299° |
| 2026-04-16 21:56 | 41.10238 | -4.68107 | 28784 ft | 407 kts | 299° |
| 2026-04-16 21:56 | 41.11696 | -4.71323 | 29324 ft | 406 kts | 299° |
| 2026-04-16 21:56 | 41.13146 | -4.74527 | 29899 ft | 405 kts | 299° |
| 2026-04-16 21:56 | 41.14601 | -4.77745 | 30195 ft | 407 kts | 299° |
| 2026-04-16 21:57 | 41.16049 | -4.80951 | 30199 ft | 403 kts | 299° |
| 2026-04-16 21:57 | 41.18927 | -4.87333 | 30194 ft | 402 kts | 299° |
| 2026-04-16 21:58 | 41.21776 | -4.93663 | 30193 ft | 401 kts | 298° |
| 2026-04-16 21:58 | 41.24635 | -5.00027 | 30193 ft | 401 kts | 298° |
| 2026-04-16 21:59 | 41.27486 | -5.06392 | 30182 ft | 400 kts | 298° |
| 2026-04-16 21:59 | 41.30332 | -5.12754 | 30185 ft | 400 kts | 298° |
| 2026-04-16 22:00 | 41.33172 | -5.19118 | 30185 ft | 400 kts | 298° |
| 2026-04-16 22:00 | 41.36007 | -5.25484 | 30185 ft | 399 kts | 298° |
| 2026-04-16 22:01 | 41.38834 | -5.31844 | 30182 ft | 399 kts | 298° |
| 2026-04-16 22:01 | 41.41657 | -5.38211 | 30185 ft | 398 kts | 298° |
| 2026-04-16 22:02 | 41.44469 | -5.44566 | 30178 ft | 398 kts | 298° |
| 2026-04-16 22:02 | 41.47277 | -5.50920 | 30181 ft | 398 kts | 298° |
| 2026-04-16 22:03 | 41.50062 | -5.57236 | 30177 ft | 397 kts | 298° |
| 2026-04-16 22:03 | 41.52859 | -5.63592 | 30181 ft | 397 kts | 297° |
| 2026-04-16 22:04 | 41.55999 | -5.69679 | 30182 ft | 398 kts | 302° |
| 2026-04-16 22:04 | 41.59184 | -5.75737 | 30178 ft | 398 kts | 302° |
| 2026-04-16 22:05 | 41.62345 | -5.81783 | 30179 ft | 397 kts | 302° |
| 2026-04-16 22:05 | 41.65502 | -5.87837 | 30182 ft | 396 kts | 302° |
| 2026-04-16 22:06 | 41.68655 | -5.93896 | 30184 ft | 396 kts | 301° |
| 2026-04-16 22:06 | 41.73346 | -6.02931 | 30184 ft | 396 kts | 301° |
| 2026-04-16 22:07 | 41.76482 | -6.08987 | 30183 ft | 396 kts | 301° |
| 2026-04-16 22:07 | 41.79616 | -6.15051 | 30182 ft | 395 kts | 301° |
| 2026-04-16 22:08 | 41.82800 | -6.21084 | 30176 ft | 398 kts | 308° |
| 2026-04-16 22:08 | 41.84902 | -6.23524 | 30198 ft | 403 kts | 319° |
| 2026-04-16 22:08 | 41.87122 | -6.25834 | 30182 ft | 403 kts | 317° |
| 2026-04-16 22:09 | 41.91523 | -6.30452 | 30188 ft | 404 kts | 318° |
| 2026-04-16 22:09 | 41.95963 | -6.35070 | 30192 ft | 404 kts | 318° |
| 2026-04-16 22:10 | 42.00406 | -6.39691 | 30200 ft | 404 kts | 318° |
| 2026-04-16 22:10 | 42.04849 | -6.44319 | 30193 ft | 404 kts | 317° |
| 2026-04-16 22:11 | 42.09290 | -6.48955 | 30203 ft | 404 kts | 317° |
| 2026-04-16 22:11 | 42.13734 | -6.53601 | 30205 ft | 404 kts | 317° |
| 2026-04-16 22:12 | 42.18168 | -6.58246 | 30200 ft | 404 kts | 317° |
| 2026-04-16 22:12 | 42.22600 | -6.62897 | 30200 ft | 404 kts | 317° |
| 2026-04-16 22:13 | 42.27018 | -6.67541 | 30210 ft | 403 kts | 317° |
| 2026-04-16 22:13 | 42.29185 | -6.69822 | 30209 ft | 387 kts | 317° |
| 2026-04-16 22:13 | 42.31277 | -6.72025 | 30047 ft | 377 kts | 317° |
| 2026-04-16 22:14 | 42.33333 | -6.74196 | 29541 ft | 375 kts | 317° |
| 2026-04-16 22:14 | 42.35390 | -6.76367 | 29099 ft | 372 kts | 317° |
| 2026-04-16 22:14 | 42.37421 | -6.78512 | 28682 ft | 369 kts | 317° |
| 2026-04-16 22:14 | 42.39435 | -6.80642 | 28266 ft | 366 kts | 317° |
| 2026-04-16 22:15 | 42.41433 | -6.82756 | 27876 ft | 363 kts | 317° |
| 2026-04-16 22:15 | 42.43414 | -6.84854 | 27477 ft | 360 kts | 317° |
| 2026-04-16 22:15 | 42.45381 | -6.86939 | 27094 ft | 358 kts | 317° |
| 2026-04-16 22:15 | 42.47312 | -6.88986 | 26719 ft | 356 kts | 317° |
| 2026-04-16 22:16 | 42.49280 | -6.91076 | 26319 ft | 354 kts | 317° |
| 2026-04-16 22:16 | 42.51231 | -6.93150 | 25646 ft | 361 kts | 317° |
| 2026-04-16 22:16 | 42.53230 | -6.95276 | 24927 ft | 369 kts | 317° |
| 2026-04-16 22:16 | 42.55237 | -6.97412 | 24359 ft | 373 kts | 317° |
| 2026-04-16 22:17 | 42.57269 | -6.99575 | 23956 ft | 367 kts | 317° |
| 2026-04-16 22:17 | 42.59249 | -7.01686 | 23538 ft | 356 kts | 317° |
| 2026-04-16 22:17 | 42.61165 | -7.03729 | 23146 ft | 344 kts | 317° |
| 2026-04-16 22:17 | 42.63011 | -7.05700 | 22781 ft | 333 kts | 316° |
| 2026-04-16 22:18 | 42.64821 | -7.07636 | 22420 ft | 330 kts | 316° |
| 2026-04-16 22:18 | 42.66619 | -7.09559 | 22072 ft | 327 kts | 316° |
| 2026-04-16 22:18 | 42.68401 | -7.11465 | 21726 ft | 325 kts | 316° |
| 2026-04-16 22:18 | 42.70171 | -7.13361 | 21377 ft | 323 kts | 316° |
| 2026-04-16 22:19 | 42.71925 | -7.15242 | 21044 ft | 320 kts | 316° |
| 2026-04-16 22:19 | 42.73667 | -7.17110 | 20703 ft | 318 kts | 316° |
| 2026-04-16 22:19 | 42.75399 | -7.18969 | 20391 ft | 315 kts | 316° |
| 2026-04-16 22:19 | 42.77115 | -7.20812 | 20058 ft | 314 kts | 316° |
| 2026-04-16 22:20 | 42.78829 | -7.22654 | 19731 ft | 312 kts | 316° |
| 2026-04-16 22:20 | 42.80526 | -7.24479 | 19407 ft | 310 kts | 316° |
| 2026-04-16 22:20 | 42.82211 | -7.26293 | 19094 ft | 308 kts | 316° |
| 2026-04-16 22:20 | 42.83886 | -7.28096 | 18775 ft | 306 kts | 316° |
| 2026-04-16 22:21 | 42.85517 | -7.29941 | 18384 ft | 303 kts | 310° |
| 2026-04-16 22:21 | 42.86952 | -7.31970 | 18025 ft | 300 kts | 309° |
| 2026-04-16 22:21 | 42.88403 | -7.33988 | 17717 ft | 296 kts | 310° |
| 2026-04-16 22:21 | 42.89846 | -7.35979 | 17404 ft | 294 kts | 310° |
| 2026-04-16 22:22 | 42.91297 | -7.37970 | 17089 ft | 299 kts | 310° |
| 2026-04-16 22:22 | 42.92778 | -7.39994 | 16767 ft | 303 kts | 310° |
| 2026-04-16 22:22 | 42.94275 | -7.42036 | 16448 ft | 304 kts | 310° |
| 2026-04-16 22:22 | 42.95766 | -7.44072 | 16129 ft | 302 kts | 310° |
| 2026-04-16 22:23 | 42.97244 | -7.46090 | 15809 ft | 300 kts | 310° |
| 2026-04-16 22:23 | 42.98716 | -7.48101 | 15490 ft | 298 kts | 310° |
| 2026-04-16 22:23 | 43.00175 | -7.50095 | 15178 ft | 296 kts | 310° |
| 2026-04-16 22:23 | 43.01626 | -7.52080 | 14857 ft | 294 kts | 310° |
| 2026-04-16 22:24 | 43.03066 | -7.54051 | 14552 ft | 292 kts | 310° |
| 2026-04-16 22:24 | 43.04499 | -7.56014 | 14239 ft | 290 kts | 311° |
| 2026-04-16 22:24 | 43.05842 | -7.57856 | 13938 ft | 289 kts | 310° |
| 2026-04-16 22:24 | 43.07218 | -7.59743 | 13605 ft | 287 kts | 310° |
| 2026-04-16 22:25 | 43.08410 | -7.61379 | 13325 ft | 286 kts | 311° |
| 2026-04-16 22:25 | 43.09788 | -7.63272 | 13024 ft | 283 kts | 310° |
| 2026-04-16 22:25 | 43.11173 | -7.65175 | 12726 ft | 281 kts | 311° |
| 2026-04-16 22:25 | 43.12544 | -7.67061 | 12418 ft | 279 kts | 310° |
| 2026-04-16 22:26 | 43.13907 | -7.68937 | 12127 ft | 276 kts | 311° |
| 2026-04-16 22:26 | 43.15260 | -7.70800 | 11830 ft | 274 kts | 310° |
| 2026-04-16 22:26 | 43.16602 | -7.72651 | 11538 ft | 274 kts | 311° |
| 2026-04-16 22:26 | 43.17962 | -7.74525 | 11244 ft | 280 kts | 311° |
| 2026-04-16 22:27 | 43.19343 | -7.76432 | 10942 ft | 283 kts | 311° |
| 2026-04-16 22:27 | 43.20731 | -7.78348 | 10643 ft | 283 kts | 311° |
| 2026-04-16 22:27 | 43.22120 | -7.80268 | 10396 ft | 282 kts | 311° |
| 2026-04-16 22:27 | 43.23492 | -7.82164 | 10204 ft | 280 kts | 311° |
| 2026-04-16 22:28 | 43.24844 | -7.84035 | 9875 ft | 279 kts | 311° |
| 2026-04-16 22:28 | 43.26207 | -7.85922 | 9557 ft | 277 kts | 311° |
| 2026-04-16 22:28 | 43.27559 | -7.87796 | 9249 ft | 275 kts | 311° |
| 2026-04-16 22:28 | 43.28901 | -7.89655 | 8950 ft | 273 kts | 311° |
| 2026-04-16 22:29 | 43.30229 | -7.91498 | 8657 ft | 270 kts | 311° |
| 2026-04-16 22:29 | 43.31542 | -7.93322 | 8369 ft | 267 kts | 311° |
| 2026-04-16 22:29 | 43.32847 | -7.95134 | 8088 ft | 265 kts | 311° |
| 2026-04-16 22:29 | 43.34140 | -7.96931 | 7800 ft | 264 kts | 311° |
| 2026-04-16 22:30 | 43.35427 | -7.98721 | 7496 ft | 262 kts | 311° |
| 2026-04-16 22:30 | 43.36707 | -8.00503 | 7135 ft | 263 kts | 311° |
| 2026-04-16 22:30 | 43.37977 | -8.02272 | 6803 ft | 264 kts | 311° |
| 2026-04-16 22:30 | 43.39274 | -8.04080 | 6391 ft | 268 kts | 311° |
| 2026-04-16 22:31 | 43.40596 | -8.05923 | 5960 ft | 272 kts | 311° |
| 2026-04-16 22:31 | 43.41909 | -8.07752 | 5506 ft | 265 kts | 311° |
| 2026-04-16 22:31 | 43.43179 | -8.09527 | 5291 ft | 252 kts | 311° |
| 2026-04-16 22:31 | 43.44371 | -8.11193 | 5257 ft | 237 kts | 311° |
| 2026-04-16 22:32 | 43.45500 | -8.12772 | 5189 ft | 225 kts | 311° |
| 2026-04-16 22:32 | 43.46574 | -8.14274 | 5097 ft | 215 kts | 311° |
| 2026-04-16 22:32 | 43.47621 | -8.15738 | 4999 ft | 216 kts | 311° |
| 2026-04-16 22:32 | 43.48689 | -8.17234 | 4891 ft | 221 kts | 311° |
| 2026-04-16 22:33 | 43.49659 | -8.18854 | 4739 ft | 217 kts | 293° |
| 2026-04-16 22:33 | 43.49978 | -8.20829 | 4599 ft | 209 kts | 264° |
| 2026-04-16 22:33 | 43.49595 | -8.22656 | 4499 ft | 197 kts | 239° |
| 2026-04-16 22:33 | 43.48964 | -8.23972 | 4381 ft | 190 kts | 234° |
| 2026-04-16 22:34 | 43.47995 | -8.25141 | 4144 ft | 185 kts | 203° |
| 2026-04-16 22:34 | 43.46748 | -8.25490 | 3892 ft | 182 kts | 187° |
| 2026-04-16 22:34 | 43.45510 | -8.25710 | 3627 ft | 177 kts | 195° |
| 2026-04-16 22:34 | 43.44369 | -8.26260 | 3388 ft | 171 kts | 205° |
| 2026-04-16 22:35 | 43.43325 | -8.26999 | 3163 ft | 167 kts | 209° |
| 2026-04-16 22:35 | 43.42313 | -8.27785 | 2941 ft | 167 kts | 211° |
| 2026-04-16 22:35 | 43.41320 | -8.28585 | 2719 ft | 167 kts | 211° |
| 2026-04-16 22:35 | 43.40338 | -8.29389 | 2509 ft | 162 kts | 211° |
| 2026-04-16 22:36 | 43.39383 | -8.30172 | 2266 ft | 158 kts | 212° |
| 2026-04-16 22:36 | 43.38444 | -8.30945 | 2092 ft | 157 kts | 212° |
| 2026-04-16 22:36 | 43.37503 | -8.31720 | 1873 ft | 157 kts | 212° |
| 2026-04-16 22:36 | 43.36593 | -8.32470 | 1645 ft | 148 kts | 212° |
| 2026-04-16 22:37 | 43.35724 | -8.33186 | 1432 ft | 143 kts | 212° |
| 2026-04-16 22:37 | 43.34870 | -8.33890 | 1234 ft | 143 kts | 212° |
| 2026-04-16 22:37 | 43.34307 | -8.34354 | 1106 ft | 143 kts | 212° |
| 2026-04-16 22:37 | 43.33456 | -8.35054 | 922 ft | 142 kts | 211° |
| 2026-04-16 22:38 | 43.32607 | -8.35755 | 726 ft | 142 kts | 211° |
| 2026-04-16 22:38 | 43.31473 | -8.36681 | 471 ft | 143 kts | 207° |
| 2026-04-16 22:38 | 43.30647 | -8.37381 | 291 ft | 135 kts | 208° |
| 2026-04-16 22:38 | 43.30149 | -8.37777 | 275 ft | 102 kts | 208° |
| 2026-04-16 22:39 | 43.29747 | -8.38108 | 275 ft | 37 kts | 211° |
| 2026-04-16 22:39 | 43.29491 | -8.38315 | 272 ft | 45 kts | 210° |
| 2026-04-16 22:39 | 43.29304 | -8.38472 | 273 ft | 17 kts | 213° |
| 2026-04-16 22:39 | 43.29236 | -8.38582 | 273 ft | 12 kts | 220° |
| 2026-04-16 22:40 | 43.29199 | -8.38573 | 273 ft | 5 kts | 107° |
| 2026-04-16 22:40 | 43.29241 | -8.38517 | 273 ft | 14 kts | 30° |
| 2026-04-16 22:40 | 43.29348 | -8.38427 | 272 ft | 21 kts | 32° |
| 2026-04-16 22:40 | 43.29483 | -8.38320 | 272 ft | 23 kts | 30° |
| 2026-04-16 22:41 | 43.29628 | -8.38203 | 272 ft | 25 kts | 30° |
| 2026-04-16 22:41 | 43.29800 | -8.38061 | 275 ft | 31 kts | 31° |
| 2026-04-16 22:41 | 43.29992 | -8.37902 | 277 ft | 33 kts | 31° |
| 2026-04-16 22:41 | 43.30172 | -8.37763 | 275 ft | 22 kts | 13° |
| 2026-04-16 22:42 | 43.30240 | -8.37802 | 276 ft | 0 kts | 302° |
| 2026-04-16 22:42 | 43.30247 | -8.37816 | 276 ft | 5 kts | 302° |
| 2026-04-16 22:42 | 43.30269 | -8.37868 | 276 ft | 5 kts | 290° |
| 2026-04-16 22:43 | 43.30257 | -8.37919 | 279 ft | 7 kts | 224° |
| 2026-04-16 22:43 | 43.30230 | -8.37971 | 276 ft | 2 kts | 284° |
| 2026-04-16 22:43 | 43.30241 | -8.37994 | 280 ft | 4 kts | 300° |
| 2026-04-16 22:43 | 43.30246 | -8.38005 | 278 ft | 0 kts | 300° |